Time;durP1;ratioP1;P1;durP2;ratioP2;P2;SDS_P1;SDS_P2;PMS_P1;PMS_P2;Temp;Humidity;BMP_temperature;BMP_pressure;BME280_temperature;BME280_humidity;BME280_pressure;Samples;Min_cycle;Max_cycle;Signal;HPM_P1;HPM_P2
2023/07/17 00:02:20;;;;;;;12.63;4.03;;;;;;;13.54;100.00;100045.72;5035557;28;22333;-82
2023/07/17 00:04:46;;;;;;;6.93;3.72;;;;;;;13.50;100.00;100047.84;5031893;28;20397;-82
2023/07/17 00:07:12;;;;;;;5.95;3.30;;;;;;;13.45;100.00;100044.88;5062748;28;20941;-81
2023/07/17 00:09:38;;;;;;;6.22;3.83;;;;;;;13.42;100.00;100048.72;5033868;28;20111;-82
2023/07/17 00:12:04;;;;;;;6.07;3.30;;;;;;;13.39;100.00;100041.09;5051803;28;20472;-81
2023/07/17 00:14:30;;;;;;;5.00;3.00;;;;;;;13.34;100.00;100041.59;5062349;28;20094;-81
2023/07/17 00:16:56;;;;;;;4.75;2.67;;;;;;;13.24;100.00;100038.31;5067895;28;20040;-83
2023/07/17 00:19:21;;;;;;;6.38;2.65;;;;;;;13.19;100.00;100046.78;5048690;28;20032;-79
2023/07/17 00:21:47;;;;;;;3.67;2.25;;;;;;;13.14;100.00;100042.00;5041885;28;20051;-80
2023/07/17 00:24:13;;;;;;;4.05;2.38;;;;;;;13.11;100.00;100045.00;5058192;28;20062;-82
2023/07/17 00:26:39;;;;;;;4.45;2.47;;;;;;;13.10;100.00;100046.00;5022787;28;20033;-83
2023/07/17 00:29:30;;;;;;;8.18;2.53;;;;;;;13.07;100.00;100046.34;5035484;28;20044;-82
2023/07/17 00:31:57;;;;;;;12.57;2.67;;;;;;;13.00;100.00;100048.00;5070860;28;20024;-82
2023/07/17 00:34:23;;;;;;;6.30;2.60;;;;;;;13.01;100.00;100058.47;5069520;28;20043;-79
2023/07/17 00:36:49;;;;;;;4.88;2.20;;;;;;;13.00;100.00;100056.81;5057030;28;20036;-79
2023/07/17 00:39:15;;;;;;;4.10;2.28;;;;;;;12.99;100.00;100060.47;5053373;28;20531;-83
2023/07/17 00:41:41;;;;;;;6.15;2.42;;;;;;;13.01;100.00;100062.97;5070861;28;20033;-82
2023/07/17 00:44:07;;;;;;;3.42;1.70;;;;;;;12.98;100.00;100060.63;5087370;28;20062;-82
2023/07/17 00:46:34;;;;;;;5.63;1.65;;;;;;;12.97;100.00;100067.75;5046248;28;20073;-82
2023/07/17 00:49:04;;;;;;;8.75;1.67;;;;;;;12.97;100.00;100065.09;5038649;28;20032;-82
2023/07/17 00:51:31;;;;;;;4.20;1.35;;;;;;;12.93;100.00;100061.16;5007954;28;20036;-82
2023/07/17 00:53:57;;;;;;;3.28;1.45;;;;;;;12.89;100.00;100063.31;5071609;28;20020;-82
2023/07/17 00:56:27;;;;;;;5.65;1.48;;;;;;;12.95;100.00;100063.63;5048052;28;20040;-82
2023/07/17 00:58:53;;;;;;;3.42;1.52;;;;;;;12.94;100.00;100062.78;5065305;28;20039;-81
2023/07/17 01:01:20;;;;;;;2.63;1.30;;;;;;;12.96;100.00;100073.25;5052990;28;20041;-81
2023/07/17 01:03:46;;;;;;;2.33;1.50;;;;;;;12.97;100.00;100073.06;5036676;28;20048;-82
2023/07/17 01:06:12;;;;;;;6.38;1.95;;;;;;;12.97;100.00;100080.19;5069992;28;20028;-82
2023/07/17 01:08:39;;;;;;;3.83;1.70;;;;;;;12.95;100.00;100068.94;5069864;28;20051;-82
2023/07/17 01:11:05;;;;;;;4.85;1.55;;;;;;;12.92;100.00;100074.56;5068783;28;20052;-82
2023/07/17 01:13:30;;;;;;;4.05;1.50;;;;;;;12.89;100.00;100081.03;5086582;28;20036;-80
2023/07/17 01:15:56;;;;;;;4.72;1.40;;;;;;;12.86;100.00;100071.59;5031305;28;20040;-82
2023/07/17 01:18:22;;;;;;;3.05;1.50;;;;;;;12.87;100.00;100072.41;5031322;28;20444;-82
2023/07/17 01:20:48;;;;;;;2.85;1.27;;;;;;;12.89;100.00;100073.06;5077424;28;20075;-82
2023/07/17 01:23:14;;;;;;;4.60;1.20;;;;;;;12.86;100.00;100076.91;5077123;28;20032;-82
2023/07/17 01:25:40;;;;;;;5.32;1.20;;;;;;;12.83;100.00;100076.41;5073750;28;20036;-81
2023/07/17 01:28:06;;;;;;;3.58;1.23;;;;;;;12.84;100.00;100075.41;5056797;28;20028;-81
2023/07/17 01:30:32;;;;;;;5.75;1.25;;;;;;;12.76;100.00;100073.59;5067642;28;20024;-83
2023/07/17 01:32:58;;;;;;;4.38;1.30;;;;;;;12.69;100.00;100076.09;5066946;28;20028;-83
2023/07/17 01:35:24;;;;;;;3.85;2.03;;;;;;;12.61;100.00;100078.75;5030591;28;20044;-82
2023/07/17 01:37:49;;;;;;;5.88;1.00;;;;;;;12.56;100.00;100078.41;5067934;28;20039;-82
2023/07/17 01:40:18;;;;;;;4.35;1.00;;;;;;;12.51;100.00;100084.22;5040718;28;20044;-82
2023/07/17 01:42:44;;;;;;;5.50;1.02;;;;;;;12.45;100.00;100090.19;5052043;28;20433;-83
2023/07/17 01:45:10;;;;;;;3.55;0.63;;;;;;;12.38;100.00;100088.22;5058284;28;20116;-82
2023/07/17 01:47:35;;;;;;;2.53;0.80;;;;;;;12.29;100.00;100086.53;5063681;28;20108;-80
2023/07/17 01:50:02;;;;;;;3.60;1.13;;;;;;;12.24;100.00;100089.69;5067370;28;20048;-78
2023/07/17 01:52:30;;;;;;;3.97;0.60;;;;;;;12.20;100.00;100090.19;5020228;28;20036;-79
2023/07/17 01:54:55;;;;;;;3.63;0.70;;;;;;;12.18;100.00;100085.06;5059238;28;20086;-81
2023/07/17 01:57:22;;;;;;;3.58;0.70;;;;;;;12.14;100.00;100091.66;5047394;28;20050;-82
2023/07/17 01:59:49;;;;;;;6.13;0.73;;;;;;;12.14;100.00;100099.59;5066177;28;20087;-82
2023/07/17 02:02:15;;;;;;;6.53;0.80;;;;;;;12.13;100.00;100096.13;5042934;28;20036;-82
2023/07/17 02:04:40;;;;;;;6.32;0.77;;;;;;;12.10;100.00;100096.47;5032708;28;20032;-82
2023/07/17 02:07:06;;;;;;;6.13;0.50;;;;;;;12.06;100.00;100091.59;5063532;28;20094;-83
2023/07/17 02:09:32;;;;;;;3.25;0.60;;;;;;;12.06;100.00;100099.53;5064897;28;20484;-81
2023/07/17 02:11:58;;;;;;;7.90;0.60;;;;;;;12.01;100.00;100097.38;5046278;28;20114;-82
2023/07/17 02:14:24;;;;;;;4.15;0.65;;;;;;;11.99;100.00;100089.59;5049434;28;20424;-82
2023/07/17 02:16:50;;;;;;;5.15;0.65;;;;;;;11.95;100.00;100096.22;5057198;28;20021;-83
2023/07/17 02:19:16;;;;;;;5.47;0.65;;;;;;;11.95;100.00;100090.94;5054222;28;20114;-83
2023/07/17 02:21:42;;;;;;;5.57;0.90;;;;;;;11.95;100.00;100096.22;5051119;28;20029;-83
2023/07/17 02:24:08;;;;;;;4.93;1.02;;;;;;;11.92;100.00;100096.56;5020185;28;20063;-83
2023/07/17 02:26:34;;;;;;;5.20;0.70;;;;;;;11.93;100.00;100098.19;5062115;28;20068;-81
2023/07/17 02:29:00;;;;;;;5.80;0.50;;;;;;;11.93;100.00;100092.91;5087069;28;20035;-83
2023/07/17 02:31:26;;;;;;;5.75;0.70;;;;;;;11.95;100.00;100095.38;5053682;28;20047;-83
2023/07/17 02:33:51;;;;;;;9.13;1.20;;;;;;;11.98;100.00;100093.25;5085997;28;20028;-82
2023/07/17 02:36:18;;;;;;;6.10;1.10;;;;;;;11.99;100.00;100094.91;5069700;28;20036;-82
2023/07/17 02:38:43;;;;;;;4.88;0.85;;;;;;;11.97;100.00;100091.59;5053101;28;20028;-82
2023/07/17 02:41:09;;;;;;;19.92;0.70;;;;;;;11.93;100.00;100094.75;5045975;28;20031;-82
2023/07/17 02:43:35;;;;;;;4.32;0.43;;;;;;;11.89;100.00;100092.41;5065520;28;20036;-83
2023/07/17 02:46:01;;;;;;;5.45;1.10;;;;;;;11.85;100.00;100096.34;5085077;28;20032;-82
2023/07/17 02:48:27;;;;;;;4.88;0.70;;;;;;;11.87;100.00;100098.84;5072191;28;20036;-82
2023/07/17 02:50:53;;;;;;;3.80;0.90;;;;;;;11.89;100.00;100096.88;5061688;28;20035;-78
2023/07/17 02:53:19;;;;;;;10.07;0.90;;;;;;;11.87;100.00;100097.03;5054033;28;20045;-82
2023/07/17 02:55:44;;;;;;;3.83;0.63;;;;;;;11.86;100.00;100107.78;5067332;28;20033;-82
2023/07/17 02:58:15;;;;;;;5.88;0.80;;;;;;;11.85;100.00;100106.13;5071936;28;20539;-82
2023/07/17 03:00:41;;;;;;;7.78;0.68;;;;;;;11.82;100.00;100114.41;5053943;28;20048;-78
2023/07/17 03:03:07;;;;;;;6.10;0.63;;;;;;;11.83;100.00;100111.59;5060518;28;20039;-80
2023/07/17 03:05:35;;;;;;;4.47;0.82;;;;;;;11.81;100.00;100108.28;5063427;28;20090;-82
2023/07/17 03:08:02;;;;;;;8.98;1.02;;;;;;;11.78;100.00;100114.69;5015729;28;20078;-81
2023/07/17 03:10:29;;;;;;;3.83;0.63;;;;;;;11.80;100.00;100106.63;5059490;28;20048;-82
2023/07/17 03:12:56;;;;;;;9.25;1.05;;;;;;;11.78;100.00;100114.69;5046257;28;20033;-82
2023/07/17 03:15:23;;;;;;;7.45;1.25;;;;;;;11.75;100.00;100116.88;5031802;28;20035;-82
2023/07/17 03:17:49;;;;;;;4.70;1.02;;;;;;;11.75;100.00;100119.50;5053850;28;21736;-83
2023/07/17 03:20:17;;;;;;;4.97;0.80;;;;;;;11.72;100.00;100118.00;5053182;28;20043;-81
2023/07/17 03:22:43;;;;;;;7.35;1.23;;;;;;;11.65;100.00;100112.53;5081960;28;20033;-82
2023/07/17 03:25:09;;;;;;;7.57;1.17;;;;;;;11.67;100.00;100117.66;5050674;28;20033;-82
2023/07/17 03:27:36;;;;;;;2.78;0.70;;;;;;;11.68;100.00;100124.59;5020999;28;20028;-81
2023/07/17 03:30:02;;;;;;;5.97;0.80;;;;;;;11.68;100.00;100129.06;5081066;28;20420;-83
2023/07/17 03:32:36;;;;;;;8.55;0.80;;;;;;;11.69;100.00;100133.38;5063863;28;20111;-83
2023/07/17 03:35:03;;;;;;;7.90;0.70;;;;;;;11.62;100.00;100138.47;5015436;28;20060;-83
2023/07/17 03:37:29;;;;;;;6.18;1.25;;;;;;;11.58;100.00;100131.84;5038597;28;20051;-83
2023/07/17 03:39:55;;;;;;;4.07;0.80;;;;;;;11.57;100.00;100138.97;5013363;28;20066;-82
2023/07/17 03:42:21;;;;;;;5.93;0.73;;;;;;;11.56;100.00;100147.06;5075962;28;20044;-82
2023/07/17 03:44:47;;;;;;;7.32;0.70;;;;;;;11.53;100.00;100146.38;5070371;28;20033;-82
2023/07/17 03:47:13;;;;;;;8.23;0.85;;;;;;;11.53;100.00;100146.38;5035417;28;20036;-82
2023/07/17 03:49:41;;;;;;;7.45;0.88;;;;;;;11.52;100.00;100143.88;5066104;28;20040;-82
2023/07/17 03:52:06;;;;;;;6.85;0.80;;;;;;;11.52;100.00;100146.53;5059257;28;20074;-82
2023/07/17 03:54:33;;;;;;;8.50;1.10;;;;;;;11.49;100.00;100157.44;5068640;28;20036;-84
2023/07/17 03:56:59;;;;;;;6.93;0.82;;;;;;;11.47;100.00;100148.81;5037632;28;20032;-83
2023/07/17 03:59:25;;;;;;;11.52;0.77;;;;;;;11.46;100.00;100152.47;5034694;28;20095;-83
2023/07/17 04:01:52;;;;;;;6.88;1.65;;;;;;;11.44;100.00;100157.91;5051796;28;20044;-82
2023/07/17 04:04:19;;;;;;;6.65;0.77;;;;;;;11.43;100.00;100160.72;5060769;28;20044;-83
2023/07/17 04:06:45;;;;;;;5.22;0.70;;;;;;;11.40;100.00;100164.53;5045396;28;20556;-83
2023/07/17 04:09:11;;;;;;;8.48;1.00;;;;;;;11.39;100.00;100162.84;5047967;28;20037;-83
2023/07/17 04:11:39;;;;;;;4.75;0.80;;;;;;;11.39;100.00;100168.13;5044413;28;20033;-83
2023/07/17 04:14:05;;;;;;;11.38;1.00;;;;;;;11.36;100.00;100168.44;5040118;28;20079;-83
2023/07/17 04:16:31;;;;;;;6.88;0.70;;;;;;;11.33;100.00;100166.94;5045106;28;20029;-81
2023/07/17 04:18:57;;;;;;;8.43;0.73;;;;;;;11.33;100.00;100171.41;5030780;28;20036;-82
2023/07/17 04:21:24;;;;;;;6.25;0.88;;;;;;;11.34;100.00;100178.38;5045914;28;20032;-82
2023/07/17 04:23:50;;;;;;;7.05;0.80;;;;;;;11.31;100.00;100173.41;5050222;28;20052;-82
2023/07/17 04:26:22;;;;;;;4.63;0.88;;;;;;;11.28;100.00;100179.81;5050202;28;20620;-82
2023/07/17 04:28:48;;;;;;;6.63;0.80;;;;;;;11.27;100.00;100181.66;5049237;28;20469;-82
2023/07/17 04:31:15;;;;;;;8.13;1.15;;;;;;;11.26;100.00;100179.16;5049327;28;20098;-82
2023/07/17 04:33:41;;;;;;;3.40;0.47;;;;;;;11.23;100.00;100184.72;5063822;28;20486;-82
2023/07/17 04:36:07;;;;;;;6.72;1.30;;;;;;;11.25;100.00;100194.19;5050642;28;20048;-81
2023/07/17 04:38:33;;;;;;;9.85;0.77;;;;;;;11.29;100.00;100194.72;5043136;28;20044;-82
2023/07/17 04:40:59;;;;;;;6.53;0.63;;;;;;;11.27;100.00;100194.88;5046565;28;20083;-82
2023/07/17 04:43:25;;;;;;;13.95;1.20;;;;;;;11.29;100.00;100195.53;5066277;28;20492;-83
2023/07/17 04:45:51;;;;;;;3.80;0.73;;;;;;;11.30;100.00;100193.72;5045384;28;20152;-82
2023/07/17 04:48:20;;;;;;;3.75;0.65;;;;;;;11.29;100.00;100192.88;5060343;28;20115;-83
2023/07/17 04:50:46;;;;;;;4.85;0.40;;;;;;;11.26;100.00;100202.97;5046466;28;20368;-80
2023/07/17 04:53:13;;;;;;;5.93;0.90;;;;;;;11.22;100.00;100199.78;5062043;28;20036;-82
2023/07/17 04:55:39;;;;;;;8.27;0.70;;;;;;;11.24;100.00;100204.94;5057663;28;20585;-82
2023/07/17 04:58:05;;;;;;;2.97;0.80;;;;;;;11.27;100.00;100207.25;5017031;28;20067;-83
2023/07/17 05:00:33;;;;;;;7.25;0.85;;;;;;;11.26;100.00;100203.78;5048937;28;20040;-82
2023/07/17 05:02:59;;;;;;;2.17;0.47;;;;;;;11.22;100.00;100198.94;5044403;28;20021;-83
2023/07/17 05:05:26;;;;;;;5.32;0.60;;;;;;;11.19;100.00;100208.03;5064578;28;20115;-83
2023/07/17 05:07:52;;;;;;;6.68;1.00;;;;;;;11.17;100.00;100212.66;5065765;28;20032;-83
2023/07/17 05:10:18;;;;;;;4.35;0.75;;;;;;;11.17;100.00;100212.66;5036618;28;20075;-82
2023/07/17 05:12:44;;;;;;;4.57;0.60;;;;;;;11.14;100.00;100205.84;5039469;28;20041;-83
2023/07/17 05:15:11;;;;;;;5.55;0.77;;;;;;;11.16;100.00;100219.75;5036645;28;20389;-82
2023/07/17 05:17:37;;;;;;;4.07;0.60;;;;;;;11.18;100.00;100218.78;5066682;28;20111;-82
2023/07/17 05:20:05;;;;;;;8.07;0.82;;;;;;;11.18;100.00;100226.72;5058775;28;20043;-83
2023/07/17 05:22:32;;;;;;;4.15;0.60;;;;;;;11.16;100.00;100229.50;5043167;28;20029;-82
2023/07/17 05:25:00;;;;;;;5.25;0.75;;;;;;;11.12;100.00;100228.97;5065996;28;20052;-82
2023/07/17 05:27:26;;;;;;;6.32;0.80;;;;;;;11.10;100.00;100233.59;5031319;28;20049;-82
2023/07/17 05:29:52;;;;;;;5.93;0.63;;;;;;;11.13;100.00;100235.91;5031519;28;20165;-83
2023/07/17 05:32:18;;;;;;;6.30;0.73;;;;;;;11.14;100.00;100242.06;5068803;28;20367;-83
2023/07/17 05:34:44;;;;;;;1.40;0.65;;;;;;;11.14;100.00;100239.41;5063152;28;20040;-81
2023/07/17 05:37:11;;;;;;;8.43;0.60;;;;;;;11.14;100.00;100242.06;5042096;28;20020;-82
2023/07/17 05:39:37;;;;;;;3.30;0.57;;;;;;;11.15;100.00;100243.69;5035191;28;20040;-83
2023/07/17 05:42:03;;;;;;;2.08;0.57;;;;;;;11.18;100.00;100239.94;5067614;28;20033;-81
2023/07/17 05:44:30;;;;;;;0.90;0.38;;;;;;;11.23;100.00;100248.22;5043806;28;20500;-82
2023/07/17 05:46:57;;;;;;;4.70;0.98;;;;;;;11.29;100.00;100256.38;5050076;28;20039;-83
2023/07/17 05:49:22;;;;;;;2.78;0.50;;;;;;;11.31;100.00;100250.13;5034729;28;20033;-83
2023/07/17 05:51:48;;;;;;;2.30;0.50;;;;;;;11.38;100.00;100261.75;5054454;28;20032;-82
2023/07/17 05:54:14;;;;;;;5.20;0.70;;;;;;;11.40;100.00;100257.94;5031497;28;20472;-83
2023/07/17 05:56:40;;;;;;;4.80;0.60;;;;;;;11.46;100.00;100263.63;5052443;28;20037;-81
2023/07/17 05:59:06;;;;;;;4.00;0.60;;;;;;;11.49;100.00;100266.78;5070399;28;20041;-82
2023/07/17 06:01:32;;;;;;;5.22;0.57;;;;;;;11.55;100.00;100270.63;5037935;28;20058;-80
2023/07/17 06:03:58;;;;;;;2.83;0.63;;;;;;;11.60;100.00;100276.28;5071741;28;20071;-80
2023/07/17 06:06:23;;;;;;;4.82;0.70;;;;;;;11.65;100.00;100270.53;5053092;28;20370;-83
2023/07/17 06:08:49;;;;;;;6.20;0.68;;;;;;;11.70;100.00;100267.41;5071453;28;20040;-83
2023/07/17 06:11:15;;;;;;;7.13;1.05;;;;;;;11.79;100.00;100266.47;5050396;28;20033;-81
2023/07/17 06:13:41;;;;;;;7.32;1.00;;;;;;;11.87;100.00;100269.19;5054259;28;21619;-82
2023/07/17 06:16:06;;;;;;;5.10;0.85;;;;;;;11.94;100.00;100271.19;5072215;28;20040;-79
2023/07/17 06:18:32;;;;;;;5.15;0.70;;;;;;;12.00;100.00;100274.03;5029201;28;20037;-79
2023/07/17 06:20:58;;;;;;;1.88;0.50;;;;;;;12.03;100.00;100281.69;5042608;28;20074;-82
2023/07/17 06:23:24;;;;;;;2.33;0.68;;;;;;;12.09;100.00;100285.53;5069184;28;20127;-82
2023/07/17 06:25:49;;;;;;;4.00;0.80;;;;;;;12.18;100.00;100286.41;5068469;28;20029;-82
2023/07/17 06:28:15;;;;;;;5.10;0.75;;;;;;;12.23;100.00;100284.09;5047140;28;20028;-81
2023/07/17 06:30:44;;;;;;;7.05;1.10;;;;;;;12.27;100.00;100293.41;5070116;28;20028;-82
2023/07/17 06:33:10;;;;;;;4.55;0.63;;;;;;;12.33;100.00;100299.88;5069518;28;20370;-82
2023/07/17 06:35:36;;;;;;;2.78;0.70;;;;;;;12.35;100.00;100299.72;5052110;28;20057;-80
2023/07/17 06:38:02;;;;;;;4.05;0.95;;;;;;;12.37;100.00;100303.06;5070137;28;20381;-79
2023/07/17 06:40:28;;;;;;;2.67;0.68;;;;;;;12.42;100.00;100305.22;5069834;28;20066;-82
2023/07/17 06:42:53;;;;;;;5.88;0.75;;;;;;;12.51;100.00;100310.41;5068391;28;20389;-82
2023/07/17 06:45:19;;;;;;;6.15;0.80;;;;;;;12.57;100.00;100324.81;5046177;28;20024;-82
2023/07/17 06:47:45;;;;;;;4.53;0.85;;;;;;;12.59;100.00;100309.59;5053866;28;20051;-82
2023/07/17 06:50:11;;;;;;;5.05;0.80;;;;;;;12.62;100.00;100317.22;5018373;28;20029;-82
2023/07/17 06:52:38;;;;;;;4.82;1.10;;;;;;;12.64;100.00;100319.72;5048060;28;20393;-81
2023/07/17 06:55:07;;;;;;;3.28;0.82;;;;;;;12.72;100.00;100314.44;5038669;28;20071;-82
2023/07/17 06:57:33;;;;;;;6.40;1.10;;;;;;;12.80;100.00;100315.44;5037255;28;20067;-80
2023/07/17 06:59:59;;;;;;;3.15;0.80;;;;;;;12.82;100.00;100324.06;5074072;28;20068;-82
2023/07/17 07:02:24;;;;;;;5.60;1.00;;;;;;;12.87;100.00;100329.69;5071672;28;20393;-82
2023/07/17 07:04:50;;;;;;;3.22;0.73;;;;;;;12.94;100.00;100328.06;5060315;28;20094;-82
2023/07/17 07:07:16;;;;;;;5.07;1.10;;;;;;;12.97;100.00;100327.75;5071934;28;20420;-83
2023/07/17 07:09:42;;;;;;;4.53;1.10;;;;;;;13.00;100.00;100331.88;5070649;28;20422;-82
2023/07/17 07:12:08;;;;;;;5.68;0.88;;;;;;;13.10;100.00;100327.28;5062098;28;20401;-83
2023/07/17 07:14:34;;;;;;;8.25;1.08;;;;;;;13.18;100.00;100330.91;5052790;28;20028;-83
2023/07/17 07:17:00;;;;;;;4.40;1.15;;;;;;;13.27;100.00;100341.38;5056434;28;20058;-83
2023/07/17 07:19:26;;;;;;;3.85;1.17;;;;;;;13.34;100.00;100341.56;5038335;28;20037;-82
2023/07/17 07:21:51;;;;;;;4.97;0.85;;;;;;;13.44;100.00;100348.53;5074543;28;20033;-83
2023/07/17 07:24:17;;;;;;;2.28;0.80;;;;;;;13.52;100.00;100349.38;5036267;28;20036;-83
2023/07/17 07:26:43;;;;;;;11.73;1.20;;;;;;;13.59;100.00;100348.72;5049722;28;20024;-83
2023/07/17 07:29:09;;;;;;;1.52;0.98;;;;;;;13.68;100.00;100352.22;5076714;28;20477;-82
2023/07/17 07:31:35;;;;;;;3.47;1.05;;;;;;;13.67;100.00;100358.50;5083971;28;20032;-83
2023/07/17 07:34:00;;;;;;;5.28;1.33;;;;;;;13.66;100.00;100356.84;5055579;28;20051;-83
2023/07/17 07:36:28;;;;;;;2.53;1.10;;;;;;;13.67;100.00;100364.66;5069981;28;20086;-83
2023/07/17 07:38:54;;;;;;;6.22;1.20;;;;;;;13.68;100.00;100365.50;5067422;28;20115;-83
2023/07/17 07:41:20;;;;;;;5.30;1.40;;;;;;;13.67;100.00;100369.97;5066430;28;20038;-82
2023/07/17 07:43:46;;;;;;;7.03;1.52;;;;;;;13.75;100.00;100362.00;5045938;28;20033;-83
2023/07/17 07:46:12;;;;;;;5.50;1.45;;;;;;;13.83;100.00;100373.59;5054112;28;20025;-82
2023/07/17 07:48:38;;;;;;;5.82;1.65;;;;;;;13.85;100.00;100377.78;5070285;28;20539;-82
2023/07/17 07:51:04;;;;;;;4.35;1.35;;;;;;;13.78;100.00;100376.75;5072983;28;20423;-83
2023/07/17 07:53:30;;;;;;;2.25;1.33;;;;;;;13.76;100.00;100378.78;5070282;28;20024;-83
2023/07/17 07:55:56;;;;;;;3.95;1.33;;;;;;;13.77;100.00;100378.59;5050235;28;20065;-82
2023/07/17 07:58:22;;;;;;;6.03;1.30;;;;;;;13.73;100.00;100385.22;5049541;28;20028;-82
2023/07/17 08:00:47;;;;;;;4.22;1.40;;;;;;;13.87;100.00;100391.69;5066922;28;20048;-82
2023/07/17 08:03:13;;;;;;;5.65;1.45;;;;;;;14.07;100.00;100395.81;5049224;28;20037;-81
2023/07/17 08:05:39;;;;;;;1.73;0.82;;;;;;;14.26;100.00;100403.44;5043477;28;20804;-80
2023/07/17 08:08:05;;;;;;;4.28;1.52;;;;;;;14.46;100.00;100403.03;5068949;28;20029;-81
2023/07/17 08:10:31;;;;;;;3.42;1.17;;;;;;;14.57;100.00;100404.50;5050557;28;20037;-81
2023/07/17 08:12:59;;;;;;;8.02;1.17;;;;;;;14.70;100.00;100405.81;5083046;28;20033;-81
2023/07/17 08:15:24;;;;;;;4.97;1.30;;;;;;;14.82;100.00;100412.44;5082843;28;20029;-82
2023/07/17 08:17:50;;;;;;;3.50;1.33;;;;;;;14.99;100.00;100410.50;5063079;28;20025;-82
2023/07/17 08:20:16;;;;;;;3.53;1.00;;;;;;;15.10;100.00;100408.44;5069362;28;20037;-81
2023/07/17 08:22:42;;;;;;;6.22;0.90;;;;;;;15.00;100.00;100414.00;5050280;28;20037;-81
2023/07/17 08:25:08;;;;;;;2.25;0.90;;;;;;;14.93;100.00;100413.03;5025726;28;20388;-80
2023/07/17 08:27:34;;;;;;;2.28;0.90;;;;;;;14.96;100.00;100413.53;5067531;28;20068;-81
2023/07/17 08:29:59;;;;;;;2.15;1.00;;;;;;;15.01;100.00;100413.00;5035138;28;20090;-80
2023/07/17 08:32:25;;;;;;;1.58;0.85;;;;;;;15.14;100.00;100417.75;5049546;28;20037;-80
2023/07/17 08:34:51;;;;;;;1.98;0.65;;;;;;;15.29;100.00;100419.69;5045246;28;20040;-80
2023/07/17 08:37:17;;;;;;;2.10;0.82;;;;;;;15.31;100.00;100418.47;5084483;28;20036;-81
2023/07/17 08:39:43;;;;;;;2.40;0.68;;;;;;;15.35;100.00;100419.78;5049699;28;20052;-79
2023/07/17 08:42:10;;;;;;;2.78;0.75;;;;;;;15.40;100.00;100411.25;5047519;28;20048;-80
2023/07/17 08:44:37;;;;;;;1.70;0.57;;;;;;;15.50;100.00;100411.88;5054409;28;20037;-79
2023/07/17 08:47:05;;;;;;;2.92;0.80;;;;;;;15.64;100.00;100412.06;5041547;28;20033;-80
2023/07/17 08:49:33;;;;;;;3.13;0.95;;;;;;;15.73;100.00;100415.53;5044329;28;20107;-80
2023/07/17 08:52:02;;;;;;;4.40;1.40;;;;;;;15.70;100.00;100426.53;5037172;28;20149;-82
2023/07/17 08:54:28;;;;;;;1.45;0.60;;;;;;;15.67;100.00;100435.69;5059027;28;20530;-79
2023/07/17 08:56:55;;;;;;;1.95;0.70;;;;;;;15.65;100.00;100434.22;5032391;28;20127;-78
2023/07/17 08:59:22;;;;;;;1.80;0.90;;;;;;;15.66;100.00;100431.38;5060032;28;20182;-81
2023/07/17 09:01:49;;;;;;;4.40;1.05;;;;;;;15.76;100.00;100436.47;5062076;28;20025;-80
2023/07/17 09:04:16;;;;;;;3.60;1.00;;;;;;;15.83;100.00;100448.06;5030120;28;20408;-81
2023/07/17 09:06:41;;;;;;;4.45;0.80;;;;;;;15.98;100.00;100442.00;5063190;28;20051;-80
2023/07/17 09:09:10;;;;;;;3.25;0.75;;;;;;;16.16;100.00;100449.66;5054946;28;20040;-80
2023/07/17 09:11:36;;;;;;;2.05;0.63;;;;;;;16.27;100.00;100442.22;5045957;28;20029;-81
2023/07/17 09:14:03;;;;;;;2.70;0.88;;;;;;;16.20;100.00;100447.44;5026192;28;20033;-79
2023/07/17 09:16:29;;;;;;;2.00;0.70;;;;;;;16.16;100.00;100443.50;5071624;28;20066;-80
2023/07/17 09:18:54;;;;;;;2.78;0.75;;;;;;;16.11;100.00;100452.88;5044157;28;20103;-77
2023/07/17 09:21:22;;;;;;;5.10;0.63;;;;;;;16.04;100.00;100456.44;5049492;28;20040;-81
2023/07/17 09:23:56;;;;;;;2.03;0.60;;;;;;;15.99;100.00;100449.81;5061156;28;20039;-81
2023/07/17 09:26:24;;;;;;;3.00;0.80;;;;;;;15.85;100.00;100469.22;5065936;28;20039;-80
2023/07/17 09:28:56;;;;;;;1.33;0.50;;;;;;;15.75;100.00;100462.28;5080301;28;20028;-81
2023/07/17 09:31:30;;;;;;;3.70;0.52;;;;;;;15.68;100.00;100472.00;5032174;28;20028;-81
2023/07/17 09:33:58;;;;;;;1.55;0.60;;;;;;;15.73;100.00;100469.66;5044859;28;20024;-82
2023/07/17 09:36:24;;;;;;;0.45;0.43;;;;;;;15.69;100.00;100468.34;5070150;28;20028;-80
2023/07/17 09:38:53;;;;;;;2.95;0.65;;;;;;;15.66;100.00;100479.34;5033629;28;20377;-80
2023/07/17 09:41:23;;;;;;;2.72;0.40;;;;;;;15.68;100.00;100480.00;5069823;28;20584;-81
2023/07/17 09:44:05;;;;;;;1.95;0.40;;;;;;;15.75;100.00;100472.94;5038775;28;20043;-80
2023/07/17 09:46:38;;;;;;;2.85;0.40;;;;;;;15.90;100.00;100482.00;5035321;28;20033;-80
2023/07/17 09:49:08;;;;;;;1.83;0.30;;;;;;;16.06;100.00;100483.75;5074661;28;20032;-81
2023/07/17 09:51:35;;;;;;;1.65;0.30;;;;;;;16.18;100.00;100484.97;5058209;28;20070;-81
2023/07/17 09:54:03;;;;;;;0.35;0.22;;;;;;;16.24;100.00;100484.25;5013504;28;20115;-81
2023/07/17 09:56:30;;;;;;;0.52;0.20;;;;;;;16.41;100.00;100475.25;5030605;28;20098;-80
2023/07/17 09:59:14;;;;;;;0.73;0.20;;;;;;;16.66;100.00;100469.69;5030515;28;20115;-79
2023/07/17 10:01:45;;;;;;;2.92;0.30;;;;;;;16.67;100.00;100474.81;5033364;28;20400;-80
2023/07/17 10:04:16;;;;;;;2.78;0.30;;;;;;;16.66;100.00;100485.69;5031459;28;20119;-76
2023/07/17 10:06:45;;;;;;;0.93;0.50;;;;;;;16.61;100.00;100497.72;5066049;28;20080;-76
2023/07/17 10:09:13;;;;;;;2.80;0.50;;;;;;;16.58;100.00;100489.28;5060826;28;20051;-77
2023/07/17 10:11:39;;;;;;;4.22;0.60;;;;;;;16.57;100.00;100492.94;5063553;28;20067;-78
2023/07/17 10:14:05;;;;;;;5.88;0.50;;;;;;;16.66;100.00;100494.50;5050785;28;20456;-77
2023/07/17 10:16:31;;;;;;;3.83;0.70;;;;;;;16.78;100.00;100488.72;5043819;28;20037;-77
2023/07/17 10:18:57;;;;;;;1.27;0.35;;;;;;;16.82;100.00;100493.50;5062732;28;20134;-78
2023/07/17 10:21:23;;;;;;;1.65;0.35;;;;;;;16.76;100.00;100494.22;5067665;28;20043;-77
2023/07/17 10:23:50;;;;;;;1.98;0.30;;;;;;;16.81;100.00;100497.19;5048534;28;20036;-77
2023/07/17 10:26:20;;;;;;;0.30;0.20;;;;;;;16.77;100.00;100497.75;5065895;28;20036;-78
2023/07/17 10:28:53;;;;;;;0.70;0.30;;;;;;;16.80;100.00;100502.72;5068165;28;20150;-77
2023/07/17 10:31:24;;;;;;;1.65;0.30;;;;;;;16.83;100.00;100508.47;5033678;28;20126;-77
2023/07/17 10:33:51;;;;;;;2.67;0.43;;;;;;;16.85;100.00;100508.34;5056503;28;20067;-77
2023/07/17 10:36:36;;;;;;;1.15;0.40;;;;;;;16.92;100.00;100503.91;5067183;28;20085;-77
2023/07/17 10:39:05;;;;;;;1.10;0.45;;;;;;;17.11;100.00;100507.88;5041218;28;20540;-78
2023/07/17 10:41:30;;;;;;;2.17;0.30;;;;;;;17.22;100.00;100503.88;5084253;28;20651;-75
2023/07/17 10:43:58;;;;;;;1.70;0.40;;;;;;;17.35;100.00;100503.22;5067982;28;20826;-77
2023/07/17 10:46:28;;;;;;;2.53;0.47;;;;;;;17.47;100.00;100516.91;5047174;28;20404;-76
2023/07/17 10:49:05;;;;;;;2.42;0.50;;;;;;;17.52;100.00;100515.53;5062806;28;20052;-77
2023/07/17 10:51:30;;;;;;;1.67;0.40;;;;;;;17.45;100.00;100518.97;5054365;28;20071;-77
2023/07/17 10:53:56;;;;;;;1.30;0.30;;;;;;;17.48;100.00;100523.94;5050876;28;20064;-78
2023/07/17 10:56:22;;;;;;;1.27;0.47;;;;;;;17.53;100.00;100519.84;5077273;28;20485;-77
2023/07/17 10:58:48;;;;;;;0.55;0.22;;;;;;;17.66;100.00;100524.50;5078605;28;20036;-78
2023/07/17 11:01:15;;;;;;;2.47;0.30;;;;;;;17.66;100.00;100524.50;5062553;28;20116;-78
2023/07/17 11:03:45;;;;;;;1.73;0.20;;;;;;;17.78;100.00;100528.34;5048189;28;20032;-79
2023/07/17 11:06:10;;;;;;;1.02;0.20;;;;;;;17.85;100.00;100523.06;5068908;28;20025;-77
2023/07/17 11:08:36;;;;;;;3.17;0.32;;;;;;;17.96;100.00;100535.91;5084642;28;20539;-78
2023/07/17 11:11:02;;;;;;;0.98;0.45;;;;;;;18.03;100.00;100532.50;5050161;28;20123;-78
2023/07/17 11:13:31;;;;;;;1.52;0.40;;;;;;;18.03;100.00;100533.28;5027289;28;20037;-78
2023/07/17 11:16:17;;;;;;;1.67;0.30;;;;;;;17.95;100.00;100538.75;5053857;28;20037;-78